RYR89GT LIBP-LICC
Flight info
| Callsign | RYR89GT |
|---|---|
| Flight time | 1h 8m |
| Altitude | 35000 |
| Route | ASPIR DCT NEKPI DCT VEXUV DCT AMANO DCT PELEN DCT UXUTA DCT LIBRO |
| Aircraft | B738/M-SDE2E3FGHIRWXY/LB1 |
Departure
| Time | 2026-04-12 10:33 |
|---|---|
| Airport | Abruzzo Airport (LIBP) |
Arrival
| Time | 2026-04-12 11:41 |
|---|---|
| Airport | Catania-Fontanarossa Airport (LICC) |
| Time | Latitude | Longitude | Altitude | Speed | Heading |
|---|---|---|---|---|---|
| 2026-04-12 10:09 | 42.43094 | 14.18783 | 44 ft | 0 kts | 127° |
| 2026-04-12 10:19 | 42.43095 | 14.18783 | 44 ft | 0 kts | 127° |
| 2026-04-12 10:19 | 42.43100 | 14.18774 | 44 ft | 2 kts | 135° |
| 2026-04-12 10:20 | 42.43111 | 14.18762 | 43 ft | 2 kts | 152° |
| 2026-04-12 10:20 | 42.43126 | 14.18754 | 43 ft | 2 kts | 167° |
| 2026-04-12 10:20 | 42.43140 | 14.18752 | 43 ft | 2 kts | 182° |
| 2026-04-12 10:20 | 42.43155 | 14.18755 | 43 ft | 2 kts | 197° |
| 2026-04-12 10:21 | 42.43169 | 14.18762 | 42 ft | 2 kts | 212° |
| 2026-04-12 10:21 | 42.43177 | 14.18770 | 42 ft | 0 kts | 220° |
| 2026-04-12 10:25 | 42.43173 | 14.18765 | 42 ft | 2 kts | 218° |
| 2026-04-12 10:25 | 42.43155 | 14.18748 | 42 ft | 3 kts | 216° |
| 2026-04-12 10:25 | 42.43138 | 14.18730 | 43 ft | 3 kts | 217° |
| 2026-04-12 10:25 | 42.43121 | 14.18713 | 43 ft | 3 kts | 217° |
| 2026-04-12 10:26 | 42.43098 | 14.18690 | 43 ft | 5 kts | 217° |
| 2026-04-12 10:26 | 42.43064 | 14.18655 | 42 ft | 6 kts | 217° |
| 2026-04-12 10:26 | 42.43029 | 14.18611 | 42 ft | 7 kts | 238° |
| 2026-04-12 10:26 | 42.43019 | 14.18542 | 42 ft | 7 kts | 263° |
| 2026-04-12 10:27 | 42.43009 | 14.18465 | 42 ft | 8 kts | 246° |
| 2026-04-12 10:27 | 42.42966 | 14.18417 | 42 ft | 8 kts | 219° |
| 2026-04-12 10:27 | 42.42919 | 14.18365 | 42 ft | 8 kts | 218° |
| 2026-04-12 10:27 | 42.42867 | 14.18312 | 42 ft | 9 kts | 218° |
| 2026-04-12 10:28 | 42.42811 | 14.18254 | 42 ft | 10 kts | 217° |
| 2026-04-12 10:28 | 42.42752 | 14.18192 | 42 ft | 11 kts | 217° |
| 2026-04-12 10:28 | 42.42687 | 14.18127 | 43 ft | 11 kts | 217° |
| 2026-04-12 10:28 | 42.42628 | 14.18063 | 45 ft | 10 kts | 220° |
| 2026-04-12 10:29 | 42.42573 | 14.18007 | 46 ft | 9 kts | 216° |
| 2026-04-12 10:29 | 42.42518 | 14.17951 | 47 ft | 9 kts | 218° |
| 2026-04-12 10:29 | 42.42469 | 14.17899 | 48 ft | 8 kts | 217° |
| 2026-04-12 10:29 | 42.42430 | 14.17859 | 50 ft | 6 kts | 217° |
| 2026-04-12 10:30 | 42.42400 | 14.17829 | 51 ft | 4 kts | 217° |
| 2026-04-12 10:30 | 42.42378 | 14.17807 | 52 ft | 4 kts | 216° |
| 2026-04-12 10:30 | 42.42319 | 14.17746 | 52 ft | 15 kts | 217° |
| 2026-04-12 10:30 | 42.42276 | 14.17645 | 53 ft | 0 kts | 262° |
| 2026-04-12 10:31 | 42.42276 | 14.17644 | 53 ft | 0 kts | 262° |
| 2026-04-12 10:31 | 42.42275 | 14.17632 | 53 ft | 6 kts | 262° |
| 2026-04-12 10:31 | 42.42271 | 14.17522 | 55 ft | 13 kts | 280° |
| 2026-04-12 10:32 | 42.42293 | 14.17462 | 56 ft | 2 kts | 321° |
| 2026-04-12 10:32 | 42.42318 | 14.17463 | 55 ft | 4 kts | 21° |
| 2026-04-12 10:32 | 42.42327 | 14.17469 | 55 ft | 0 kts | 35° |
| 2026-04-12 10:32 | 42.42327 | 14.17470 | 55 ft | 0 kts | 35° |
| 2026-04-12 10:33 | 42.42470 | 14.17618 | 53 ft | 66 kts | 38° |
| 2026-04-12 10:33 | 42.43048 | 14.18214 | 42 ft | 139 kts | 37° |
| 2026-04-12 10:33 | 42.43929 | 14.19054 | 568 ft | 153 kts | 38° |
| 2026-04-12 10:33 | 42.44745 | 14.19871 | 1374 ft | 153 kts | 41° |
| 2026-04-12 10:34 | 42.45587 | 14.20794 | 2038 ft | 160 kts | 43° |
| 2026-04-12 10:34 | 42.46473 | 14.21763 | 2601 ft | 174 kts | 41° |
| 2026-04-12 10:34 | 42.47466 | 14.22787 | 3178 ft | 187 kts | 40° |
| 2026-04-12 10:34 | 42.48541 | 14.23897 | 3716 ft | 203 kts | 41° |
| 2026-04-12 10:35 | 42.49666 | 14.25192 | 4279 ft | 220 kts | 52° |
| 2026-04-12 10:35 | 42.50368 | 14.27064 | 4838 ft | 233 kts | 81° |
| 2026-04-12 10:35 | 42.50386 | 14.29274 | 5501 ft | 244 kts | 101° |
| 2026-04-12 10:35 | 42.49845 | 14.31526 | 6146 ft | 259 kts | 119° |
| 2026-04-12 10:36 | 42.48669 | 14.33364 | 6964 ft | 265 kts | 145° |
| 2026-04-12 10:36 | 42.46967 | 14.34260 | 7857 ft | 273 kts | 170° |
| 2026-04-12 10:36 | 42.45068 | 14.34166 | 8880 ft | 277 kts | 191° |
| 2026-04-12 10:36 | 42.43341 | 14.33051 | 9839 ft | 286 kts | 218° |
| 2026-04-12 10:37 | 42.42095 | 14.30945 | 10734 ft | 298 kts | 237° |
| 2026-04-12 10:37 | 42.41098 | 14.28386 | 11410 ft | 316 kts | 242° |
| 2026-04-12 10:37 | 42.40143 | 14.25669 | 12253 ft | 326 kts | 243° |
| 2026-04-12 10:37 | 42.39160 | 14.22909 | 13179 ft | 333 kts | 242° |
| 2026-04-12 10:38 | 42.38124 | 14.20100 | 14148 ft | 339 kts | 242° |
| 2026-04-12 10:38 | 42.37056 | 14.17273 | 15169 ft | 342 kts | 242° |
| 2026-04-12 10:38 | 42.35959 | 14.14409 | 16168 ft | 346 kts | 241° |
| 2026-04-12 10:38 | 42.34838 | 14.11504 | 17068 ft | 350 kts | 241° |
| 2026-04-12 10:39 | 42.33713 | 14.08592 | 18090 ft | 353 kts | 241° |
| 2026-04-12 10:39 | 42.32590 | 14.05689 | 19008 ft | 357 kts | 242° |
| 2026-04-12 10:39 | 42.31404 | 14.02723 | 19938 ft | 361 kts | 240° |
| 2026-04-12 10:39 | 42.30167 | 13.99805 | 20830 ft | 365 kts | 240° |
| 2026-04-12 10:40 | 42.28886 | 13.96853 | 21696 ft | 369 kts | 240° |
| 2026-04-12 10:40 | 42.27583 | 13.93868 | 22613 ft | 372 kts | 240° |
| 2026-04-12 10:40 | 42.26253 | 13.90816 | 23384 ft | 378 kts | 240° |
| 2026-04-12 10:40 | 42.24937 | 13.87783 | 24250 ft | 380 kts | 240° |
| 2026-04-12 10:41 | 42.23607 | 13.84709 | 25024 ft | 384 kts | 240° |
| 2026-04-12 10:41 | 42.22264 | 13.81602 | 25798 ft | 387 kts | 240° |
| 2026-04-12 10:41 | 42.20875 | 13.78459 | 26538 ft | 391 kts | 239° |
| 2026-04-12 10:41 | 42.19316 | 13.75472 | 27253 ft | 395 kts | 232° |
| 2026-04-12 10:42 | 42.17402 | 13.72840 | 27993 ft | 399 kts | 222° |
| 2026-04-12 10:42 | 42.15142 | 13.70614 | 28699 ft | 402 kts | 215° |
| 2026-04-12 10:42 | 42.12744 | 13.68642 | 29275 ft | 408 kts | 212° |
| 2026-04-12 10:42 | 42.10273 | 13.66763 | 29974 ft | 411 kts | 211° |
| 2026-04-12 10:43 | 42.05253 | 13.63010 | 31057 ft | 408 kts | 212° |
| 2026-04-12 10:43 | 42.00279 | 13.59178 | 31269 ft | 416 kts | 212° |
| 2026-04-12 10:44 | 41.97747 | 13.57250 | 31688 ft | 423 kts | 211° |
| 2026-04-12 10:44 | 41.95174 | 13.55312 | 32488 ft | 421 kts | 211° |
| 2026-04-12 10:44 | 41.92634 | 13.53395 | 33104 ft | 423 kts | 212° |
| 2026-04-12 10:44 | 41.90069 | 13.51452 | 33645 ft | 427 kts | 212° |
| 2026-04-12 10:45 | 41.87475 | 13.49479 | 34180 ft | 430 kts | 212° |
| 2026-04-12 10:45 | 41.84848 | 13.47476 | 34771 ft | 433 kts | 212° |
| 2026-04-12 10:45 | 41.82234 | 13.45477 | 35037 ft | 437 kts | 212° |
| 2026-04-12 10:45 | 41.79610 | 13.43472 | 35026 ft | 433 kts | 212° |
| 2026-04-12 10:46 | 41.74409 | 13.39503 | 35018 ft | 429 kts | 212° |
| 2026-04-12 10:46 | 41.69207 | 13.35535 | 34994 ft | 431 kts | 212° |
| 2026-04-12 10:47 | 41.64021 | 13.31584 | 34977 ft | 430 kts | 211° |
| 2026-04-12 10:47 | 41.58805 | 13.27619 | 34961 ft | 429 kts | 211° |
| 2026-04-12 10:48 | 41.53609 | 13.23676 | 34944 ft | 431 kts | 211° |
| 2026-04-12 10:48 | 41.48417 | 13.19745 | 34943 ft | 431 kts | 211° |
| 2026-04-12 10:49 | 41.43184 | 13.15791 | 34944 ft | 431 kts | 211° |
| 2026-04-12 10:49 | 41.37950 | 13.12050 | 34939 ft | 432 kts | 205° |
| 2026-04-12 10:50 | 41.32137 | 13.10150 | 34936 ft | 435 kts | 185° |
| 2026-04-12 10:50 | 41.26058 | 13.10864 | 34933 ft | 440 kts | 172° |
| 2026-04-12 10:51 | 41.20097 | 13.12725 | 34931 ft | 440 kts | 168° |
| 2026-04-12 10:51 | 41.14220 | 13.14820 | 34925 ft | 439 kts | 168° |
| 2026-04-12 10:52 | 41.08313 | 13.16933 | 34876 ft | 441 kts | 167° |
| 2026-04-12 10:52 | 41.02396 | 13.19019 | 34923 ft | 441 kts | 168° |
| 2026-04-12 10:53 | 40.96484 | 13.21076 | 34924 ft | 439 kts | 168° |
| 2026-04-12 10:53 | 40.90567 | 13.23116 | 34921 ft | 439 kts | 168° |
| 2026-04-12 10:54 | 40.84661 | 13.25145 | 34921 ft | 436 kts | 168° |
| 2026-04-12 10:54 | 40.78756 | 13.27170 | 34915 ft | 435 kts | 168° |
| 2026-04-12 10:55 | 40.72899 | 13.29175 | 34915 ft | 436 kts | 168° |
| 2026-04-12 10:55 | 40.67066 | 13.31235 | 34913 ft | 433 kts | 166° |
| 2026-04-12 10:56 | 40.61258 | 13.33519 | 34908 ft | 436 kts | 166° |
| 2026-04-12 10:56 | 40.55507 | 13.35834 | 34905 ft | 434 kts | 166° |
| 2026-04-12 10:57 | 40.49697 | 13.38153 | 34899 ft | 435 kts | 165° |
| 2026-04-12 10:57 | 40.43948 | 13.40425 | 34899 ft | 433 kts | 166° |
| 2026-04-12 10:58 | 40.38161 | 13.42695 | 34894 ft | 434 kts | 166° |
| 2026-04-12 10:58 | 40.32355 | 13.44962 | 34898 ft | 433 kts | 166° |
| 2026-04-12 10:59 | 40.26620 | 13.47196 | 34892 ft | 431 kts | 166° |
| 2026-04-12 10:59 | 40.20831 | 13.49446 | 34889 ft | 433 kts | 166° |
| 2026-04-12 11:00 | 40.15069 | 13.51682 | 34892 ft | 430 kts | 166° |
| 2026-04-12 11:00 | 40.09322 | 13.53909 | 34900 ft | 432 kts | 166° |
| 2026-04-12 11:01 | 40.03580 | 13.56129 | 34895 ft | 429 kts | 166° |
| 2026-04-12 11:01 | 39.97851 | 13.58341 | 34894 ft | 430 kts | 166° |
| 2026-04-12 11:02 | 39.92144 | 13.60543 | 34894 ft | 428 kts | 166° |
| 2026-04-12 11:02 | 39.86446 | 13.62735 | 34884 ft | 429 kts | 166° |
| 2026-04-12 11:03 | 39.80680 | 13.64947 | 34886 ft | 432 kts | 166° |
| 2026-04-12 11:03 | 39.74918 | 13.67156 | 34889 ft | 431 kts | 166° |
| 2026-04-12 11:04 | 39.69174 | 13.69356 | 34881 ft | 430 kts | 166° |
| 2026-04-12 11:04 | 39.63394 | 13.71566 | 34883 ft | 432 kts | 166° |
| 2026-04-12 11:05 | 39.57644 | 13.73761 | 34877 ft | 429 kts | 166° |
| 2026-04-12 11:05 | 39.51901 | 13.75948 | 34882 ft | 431 kts | 166° |
| 2026-04-12 11:06 | 39.46093 | 13.78155 | 34878 ft | 432 kts | 166° |
| 2026-04-12 11:06 | 39.40409 | 13.80656 | 34874 ft | 432 kts | 160° |
| 2026-04-12 11:07 | 39.34889 | 13.83891 | 34879 ft | 436 kts | 157° |
| 2026-04-12 11:07 | 39.29460 | 13.87300 | 34884 ft | 434 kts | 157° |
| 2026-04-12 11:08 | 39.23983 | 13.90728 | 34881 ft | 435 kts | 157° |
| 2026-04-12 11:08 | 39.18507 | 13.94114 | 34890 ft | 438 kts | 157° |
| 2026-04-12 11:09 | 39.13012 | 13.97480 | 34886 ft | 436 kts | 158° |
| 2026-04-12 11:09 | 39.07500 | 14.00842 | 34888 ft | 438 kts | 157° |
| 2026-04-12 11:10 | 39.01993 | 14.04190 | 34881 ft | 438 kts | 157° |
| 2026-04-12 11:10 | 38.96471 | 14.07540 | 34873 ft | 438 kts | 157° |
| 2026-04-12 11:11 | 38.90938 | 14.10892 | 34866 ft | 437 kts | 158° |
| 2026-04-12 11:11 | 38.85469 | 14.14200 | 34871 ft | 437 kts | 158° |
| 2026-04-12 11:12 | 38.79955 | 14.17527 | 34877 ft | 436 kts | 158° |
| 2026-04-12 11:12 | 38.74444 | 14.20848 | 34871 ft | 438 kts | 158° |
| 2026-04-12 11:13 | 38.68904 | 14.24180 | 34789 ft | 440 kts | 158° |
| 2026-04-12 11:13 | 38.66120 | 14.25853 | 34489 ft | 438 kts | 158° |
| 2026-04-12 11:13 | 38.63387 | 14.27495 | 34198 ft | 437 kts | 158° |
| 2026-04-12 11:14 | 38.60631 | 14.29147 | 33907 ft | 438 kts | 158° |
| 2026-04-12 11:14 | 38.57847 | 14.30815 | 33618 ft | 439 kts | 158° |
| 2026-04-12 11:14 | 38.55083 | 14.32470 | 33336 ft | 440 kts | 158° |
| 2026-04-12 11:14 | 38.52283 | 14.34145 | 32978 ft | 439 kts | 158° |
| 2026-04-12 11:15 | 38.49505 | 14.35807 | 32231 ft | 438 kts | 158° |
| 2026-04-12 11:15 | 38.46780 | 14.37435 | 31445 ft | 437 kts | 158° |
| 2026-04-12 11:15 | 38.44033 | 14.39074 | 30632 ft | 437 kts | 158° |
| 2026-04-12 11:15 | 38.41255 | 14.40730 | 29788 ft | 437 kts | 157° |
| 2026-04-12 11:16 | 38.38504 | 14.42369 | 28925 ft | 437 kts | 158° |
| 2026-04-12 11:16 | 38.35777 | 14.43992 | 28034 ft | 438 kts | 158° |
| 2026-04-12 11:16 | 38.33020 | 14.45631 | 27283 ft | 436 kts | 158° |
| 2026-04-12 11:16 | 38.30220 | 14.47294 | 26525 ft | 440 kts | 158° |
| 2026-04-12 11:17 | 38.27490 | 14.48915 | 25828 ft | 436 kts | 158° |
| 2026-04-12 11:17 | 38.24728 | 14.50555 | 25135 ft | 429 kts | 158° |
| 2026-04-12 11:17 | 38.22043 | 14.52150 | 24462 ft | 424 kts | 158° |
| 2026-04-12 11:17 | 38.19374 | 14.53734 | 23790 ft | 417 kts | 158° |
| 2026-04-12 11:18 | 38.16757 | 14.55286 | 23143 ft | 411 kts | 158° |
| 2026-04-12 11:18 | 38.14182 | 14.56809 | 22526 ft | 412 kts | 158° |
| 2026-04-12 11:18 | 38.11573 | 14.58349 | 21885 ft | 413 kts | 158° |
| 2026-04-12 11:18 | 38.08969 | 14.59885 | 21227 ft | 407 kts | 158° |
| 2026-04-12 11:19 | 38.06423 | 14.61388 | 20583 ft | 401 kts | 158° |
| 2026-04-12 11:19 | 38.03909 | 14.62872 | 19937 ft | 396 kts | 158° |
| 2026-04-12 11:19 | 38.01403 | 14.64328 | 19227 ft | 392 kts | 159° |
| 2026-04-12 11:19 | 37.98875 | 14.65537 | 18441 ft | 387 kts | 166° |
| 2026-04-12 11:20 | 37.96278 | 14.66191 | 17652 ft | 380 kts | 177° |
| 2026-04-12 11:20 | 37.93650 | 14.66227 | 17018 ft | 371 kts | 186° |
| 2026-04-12 11:20 | 37.91129 | 14.65807 | 16420 ft | 363 kts | 193° |
| 2026-04-12 11:20 | 37.88663 | 14.65065 | 15833 ft | 369 kts | 198° |
| 2026-04-12 11:21 | 37.86261 | 14.63894 | 15233 ft | 369 kts | 206° |
| 2026-04-12 11:21 | 37.83984 | 14.62422 | 14635 ft | 361 kts | 210° |
| 2026-04-12 11:21 | 37.81838 | 14.60856 | 14052 ft | 358 kts | 211° |
| 2026-04-12 11:21 | 37.79670 | 14.59216 | 13454 ft | 366 kts | 211° |
| 2026-04-12 11:22 | 37.77473 | 14.57563 | 12857 ft | 361 kts | 211° |
| 2026-04-12 11:22 | 37.75353 | 14.55991 | 12356 ft | 351 kts | 210° |
| 2026-04-12 11:22 | 37.73259 | 14.54470 | 12029 ft | 337 kts | 209° |
| 2026-04-12 11:22 | 37.71184 | 14.53289 | 11849 ft | 320 kts | 198° |
| 2026-04-12 11:23 | 37.69034 | 14.52962 | 11717 ft | 304 kts | 175° |
| 2026-04-12 11:23 | 37.67038 | 14.53740 | 11589 ft | 302 kts | 154° |
| 2026-04-12 11:23 | 37.65324 | 14.55326 | 11440 ft | 302 kts | 139° |
| 2026-04-12 11:23 | 37.64012 | 14.57309 | 11305 ft | 292 kts | 125° |
| 2026-04-12 11:24 | 37.63262 | 14.59654 | 11174 ft | 283 kts | 103° |
| 2026-04-12 11:24 | 37.63199 | 14.62075 | 11057 ft | 274 kts | 88° |
| 2026-04-12 11:24 | 37.63371 | 14.64444 | 10928 ft | 268 kts | 87° |
| 2026-04-12 11:24 | 37.63544 | 14.66764 | 10922 ft | 264 kts | 88° |
| 2026-04-12 11:25 | 37.63646 | 14.69039 | 10728 ft | 259 kts | 95° |
| 2026-04-12 11:25 | 37.63281 | 14.71274 | 10439 ft | 260 kts | 119° |
| 2026-04-12 11:25 | 37.62161 | 14.73014 | 10170 ft | 250 kts | 146° |
| 2026-04-12 11:25 | 37.60652 | 14.74017 | 9908 ft | 243 kts | 162° |
| 2026-04-12 11:26 | 37.59026 | 14.74516 | 9610 ft | 239 kts | 173° |
| 2026-04-12 11:26 | 37.57359 | 14.74677 | 9330 ft | 237 kts | 185° |
| 2026-04-12 11:26 | 37.55767 | 14.74102 | 9149 ft | 236 kts | 208° |
| 2026-04-12 11:26 | 37.54521 | 14.72840 | 9006 ft | 228 kts | 227° |
| 2026-04-12 11:27 | 37.53729 | 14.71122 | 8747 ft | 231 kts | 249° |
| 2026-04-12 11:27 | 37.53460 | 14.69115 | 8498 ft | 239 kts | 261° |
| 2026-04-12 11:27 | 37.53316 | 14.67003 | 8208 ft | 240 kts | 260° |
| 2026-04-12 11:27 | 37.53164 | 14.64935 | 7969 ft | 237 kts | 259° |
| 2026-04-12 11:28 | 37.52990 | 14.62872 | 7946 ft | 237 kts | 259° |
| 2026-04-12 11:28 | 37.52804 | 14.60770 | 7938 ft | 239 kts | 259° |
| 2026-04-12 11:28 | 37.52622 | 14.58703 | 7930 ft | 238 kts | 259° |
| 2026-04-12 11:28 | 37.52440 | 14.56634 | 7936 ft | 238 kts | 259° |
| 2026-04-12 11:29 | 37.52258 | 14.54568 | 7933 ft | 238 kts | 259° |
| 2026-04-12 11:29 | 37.52073 | 14.52475 | 7937 ft | 238 kts | 258° |
| 2026-04-12 11:29 | 37.51888 | 14.50396 | 7940 ft | 240 kts | 258° |
| 2026-04-12 11:29 | 37.51681 | 14.48330 | 7930 ft | 237 kts | 254° |
| 2026-04-12 11:30 | 37.51131 | 14.46407 | 7930 ft | 230 kts | 231° |
| 2026-04-12 11:30 | 37.49951 | 14.45114 | 7942 ft | 221 kts | 203° |
| 2026-04-12 11:30 | 37.48496 | 14.44546 | 7942 ft | 218 kts | 188° |
| 2026-04-12 11:30 | 37.46975 | 14.44489 | 7901 ft | 213 kts | 175° |
| 2026-04-12 11:31 | 37.45527 | 14.44723 | 7768 ft | 208 kts | 172° |
| 2026-04-12 11:31 | 37.44073 | 14.45116 | 7555 ft | 218 kts | 161° |
| 2026-04-12 11:31 | 37.42793 | 14.46123 | 7316 ft | 218 kts | 136° |
| 2026-04-12 11:31 | 37.41988 | 14.47783 | 7087 ft | 221 kts | 115° |
| 2026-04-12 11:32 | 37.41705 | 14.49658 | 6852 ft | 225 kts | 96° |
| 2026-04-12 11:32 | 37.41848 | 14.51640 | 6615 ft | 225 kts | 89° |
| 2026-04-12 11:32 | 37.42052 | 14.53587 | 6369 ft | 223 kts | 90° |
| 2026-04-12 11:32 | 37.42232 | 14.55556 | 6131 ft | 229 kts | 91° |
| 2026-04-12 11:33 | 37.42408 | 14.57556 | 5877 ft | 227 kts | 90° |
| 2026-04-12 11:33 | 37.42583 | 14.59519 | 5639 ft | 225 kts | 90° |
| 2026-04-12 11:33 | 37.42759 | 14.61479 | 5400 ft | 222 kts | 90° |
| 2026-04-12 11:33 | 37.42928 | 14.63383 | 5168 ft | 220 kts | 90° |
| 2026-04-12 11:34 | 37.43096 | 14.65273 | 5044 ft | 215 kts | 89° |
| 2026-04-12 11:34 | 37.43260 | 14.67116 | 5052 ft | 208 kts | 90° |
| 2026-04-12 11:34 | 37.43418 | 14.68866 | 5046 ft | 193 kts | 90° |
| 2026-04-12 11:34 | 37.43563 | 14.70520 | 5056 ft | 188 kts | 90° |
| 2026-04-12 11:35 | 37.43702 | 14.72138 | 5057 ft | 187 kts | 91° |
| 2026-04-12 11:35 | 37.43844 | 14.73779 | 5071 ft | 187 kts | 90° |
| 2026-04-12 11:35 | 37.43988 | 14.75429 | 4888 ft | 192 kts | 90° |
| 2026-04-12 11:35 | 37.44134 | 14.77109 | 4526 ft | 194 kts | 90° |
| 2026-04-12 11:36 | 37.44283 | 14.78791 | 4250 ft | 191 kts | 89° |
| 2026-04-12 11:36 | 37.44427 | 14.80424 | 3989 ft | 187 kts | 89° |
| 2026-04-12 11:36 | 37.44567 | 14.82040 | 3729 ft | 184 kts | 89° |
| 2026-04-12 11:36 | 37.44706 | 14.83640 | 3473 ft | 181 kts | 88° |
| 2026-04-12 11:37 | 37.44839 | 14.85178 | 3229 ft | 176 kts | 88° |
| 2026-04-12 11:37 | 37.44968 | 14.86642 | 2980 ft | 160 kts | 88° |
| 2026-04-12 11:37 | 37.45083 | 14.87958 | 2777 ft | 145 kts | 88° |
| 2026-04-12 11:37 | 37.45188 | 14.89203 | 2587 ft | 140 kts | 89° |
| 2026-04-12 11:38 | 37.45290 | 14.90401 | 2426 ft | 135 kts | 88° |
| 2026-04-12 11:38 | 37.45394 | 14.91610 | 2240 ft | 139 kts | 88° |
| 2026-04-12 11:38 | 37.45496 | 14.92795 | 2018 ft | 135 kts | 87° |
| 2026-04-12 11:38 | 37.45598 | 14.93984 | 1845 ft | 136 kts | 87° |
| 2026-04-12 11:39 | 37.45697 | 14.95140 | 1674 ft | 134 kts | 86° |
| 2026-04-12 11:39 | 37.45799 | 14.96327 | 1487 ft | 134 kts | 85° |
| 2026-04-12 11:39 | 37.45900 | 14.97488 | 1297 ft | 134 kts | 84° |
| 2026-04-12 11:39 | 37.45999 | 14.98654 | 1145 ft | 132 kts | 84° |
| 2026-04-12 11:40 | 37.46099 | 14.99802 | 935 ft | 133 kts | 84° |
| 2026-04-12 11:40 | 37.46187 | 15.00947 | 777 ft | 130 kts | 84° |
| 2026-04-12 11:40 | 37.46300 | 15.02089 | 613 ft | 130 kts | 82° |
| 2026-04-12 11:40 | 37.46396 | 15.03232 | 433 ft | 131 kts | 84° |
| 2026-04-12 11:41 | 37.46489 | 15.04381 | 266 ft | 131 kts | 82° |
| 2026-04-12 11:41 | 37.46584 | 15.05520 | 81 ft | 132 kts | 82° |
| 2026-04-12 11:41 | 37.46669 | 15.06532 | 32 ft | 82 kts | 82° |
| 2026-04-12 11:41 | 37.46705 | 15.06959 | 31 ft | 31 kts | 83° |
| 2026-04-12 11:42 | 37.46734 | 15.07242 | 32 ft | 31 kts | 79° |
| 2026-04-12 11:42 | 37.46757 | 15.07490 | 32 ft | 25 kts | 82° |